sensor_id;sensor_type;location;lat;lon;timestamp;P1;durP1;ratioP1;P2;durP2;ratioP2
69419;SDS011;71621;52.030;113.516;2024-01-11T00:02:13;15.80;;;4.90;;
69419;SDS011;71621;52.030;113.516;2024-01-11T00:05:17;23.00;;;6.80;;
69419;SDS011;71621;52.030;113.516;2024-01-11T00:08:21;17.05;;;5.63;;
69419;SDS011;71621;52.030;113.516;2024-01-11T00:11:25;20.80;;;5.00;;
69419;SDS011;71621;52.030;113.516;2024-01-11T00:14:29;10.05;;;4.22;;
69419;SDS011;71621;52.030;113.516;2024-01-11T00:17:33;15.85;;;5.15;;
69419;SDS011;71621;52.030;113.516;2024-01-11T00:20:37;15.43;;;5.47;;
69419;SDS011;71621;52.030;113.516;2024-01-11T00:23:41;25.45;;;5.60;;
69419;SDS011;71621;52.030;113.516;2024-01-11T00:26:45;18.05;;;6.15;;
69419;SDS011;71621;52.030;113.516;2024-01-11T00:29:49;11.32;;;4.20;;
69419;SDS011;71621;52.030;113.516;2024-01-11T00:32:53;14.77;;;5.45;;
69419;SDS011;71621;52.030;113.516;2024-01-11T00:35:58;16.20;;;5.05;;
69419;SDS011;71621;52.030;113.516;2024-01-11T00:39:02;20.52;;;5.13;;
69419;SDS011;71621;52.030;113.516;2024-01-11T00:42:06;12.43;;;4.27;;
69419;SDS011;71621;52.030;113.516;2024-01-11T00:45:10;23.45;;;5.90;;
69419;SDS011;71621;52.030;113.516;2024-01-11T00:48:15;18.45;;;5.05;;
69419;SDS011;71621;52.030;113.516;2024-01-11T00:51:19;36.83;;;10.20;;
69419;SDS011;71621;52.030;113.516;2024-01-11T00:54:23;22.45;;;7.40;;
69419;SDS011;71621;52.030;113.516;2024-01-11T00:57:27;25.35;;;9.63;;
69419;SDS011;71621;52.030;113.516;2024-01-11T01:00:31;31.63;;;9.93;;
69419;SDS011;71621;52.030;113.516;2024-01-11T01:03:34;15.38;;;5.53;;
69419;SDS011;71621;52.030;113.516;2024-01-11T01:06:40;27.10;;;8.40;;
69419;SDS011;71621;52.030;113.516;2024-01-11T01:09:44;24.08;;;7.93;;
69419;SDS011;71621;52.030;113.516;2024-01-11T01:12:48;23.33;;;7.40;;
69419;SDS011;71621;52.030;113.516;2024-01-11T01:15:51;25.92;;;6.20;;
69419;SDS011;71621;52.030;113.516;2024-01-11T01:18:55;18.42;;;7.82;;
69419;SDS011;71621;52.030;113.516;2024-01-11T01:21:59;16.37;;;5.10;;
69419;SDS011;71621;52.030;113.516;2024-01-11T01:25:03;17.85;;;4.93;;
69419;SDS011;71621;52.030;113.516;2024-01-11T01:28:07;19.48;;;5.55;;
69419;SDS011;71621;52.030;113.516;2024-01-11T01:31:11;15.77;;;4.35;;
69419;SDS011;71621;52.030;113.516;2024-01-11T01:34:15;23.45;;;7.65;;
69419;SDS011;71621;52.030;113.516;2024-01-11T01:37:18;16.33;;;5.97;;
69419;SDS011;71621;52.030;113.516;2024-01-11T01:40:23;14.10;;;3.75;;
69419;SDS011;71621;52.030;113.516;2024-01-11T01:43:27;24.27;;;5.10;;
69419;SDS011;71621;52.030;113.516;2024-01-11T01:46:31;17.42;;;5.32;;
69419;SDS011;71621;52.030;113.516;2024-01-11T01:49:35;16.48;;;3.97;;
69419;SDS011;71621;52.030;113.516;2024-01-11T01:52:42;17.67;;;4.77;;
69419;SDS011;71621;52.030;113.516;2024-01-11T01:55:47;40.83;;;14.80;;
69419;SDS011;71621;52.030;113.516;2024-01-11T01:58:51;15.70;;;6.18;;
69419;SDS011;71621;52.030;113.516;2024-01-11T02:01:56;14.88;;;5.15;;
69419;SDS011;71621;52.030;113.516;2024-01-11T02:05:00;16.75;;;5.65;;
69419;SDS011;71621;52.030;113.516;2024-01-11T02:08:06;17.42;;;6.38;;
69419;SDS011;71621;52.030;113.516;2024-01-11T02:11:11;32.17;;;9.63;;
69419;SDS011;71621;52.030;113.516;2024-01-11T02:14:15;28.23;;;9.47;;
69419;SDS011;71621;52.030;113.516;2024-01-11T02:17:19;24.85;;;9.65;;
69419;SDS011;71621;52.030;113.516;2024-01-11T02:20:24;16.67;;;4.93;;
69419;SDS011;71621;52.030;113.516;2024-01-11T02:23:27;14.00;;;3.17;;
69419;SDS011;71621;52.030;113.516;2024-01-11T02:26:32;14.85;;;4.22;;
69419;SDS011;71621;52.030;113.516;2024-01-11T02:29:37;26.92;;;8.88;;
69419;SDS011;71621;52.030;113.516;2024-01-11T02:32:42;40.78;;;10.88;;
69419;SDS011;71621;52.030;113.516;2024-01-11T02:35:49;7.40;;;1.98;;
69419;SDS011;71621;52.030;113.516;2024-01-11T02:38:54;15.25;;;4.57;;
69419;SDS011;71621;52.030;113.516;2024-01-11T02:41:59;24.65;;;7.85;;
69419;SDS011;71621;52.030;113.516;2024-01-11T02:45:03;20.90;;;6.53;;
69419;SDS011;71621;52.030;113.516;2024-01-11T02:48:07;17.55;;;5.85;;
69419;SDS011;71621;52.030;113.516;2024-01-11T02:51:11;37.05;;;11.20;;
69419;SDS011;71621;52.030;113.516;2024-01-11T02:54:15;20.70;;;6.13;;
69419;SDS011;71621;52.030;113.516;2024-01-11T02:57:19;14.90;;;4.90;;
69419;SDS011;71621;52.030;113.516;2024-01-11T03:00:22;5.53;;;1.60;;
69419;SDS011;71621;52.030;113.516;2024-01-11T03:03:26;5.85;;;2.10;;
69419;SDS011;71621;52.030;113.516;2024-01-11T03:06:30;8.70;;;1.77;;
69419;SDS011;71621;52.030;113.516;2024-01-11T03:09:34;19.38;;;2.97;;
69419;SDS011;71621;52.030;113.516;2024-01-11T03:12:39;16.75;;;2.42;;
69419;SDS011;71621;52.030;113.516;2024-01-11T03:15:42;10.37;;;4.27;;
69419;SDS011;71621;52.030;113.516;2024-01-11T03:18:46;11.93;;;2.70;;
69419;SDS011;71621;52.030;113.516;2024-01-11T03:21:50;15.82;;;2.55;;
69419;SDS011;71621;52.030;113.516;2024-01-11T03:24:54;7.33;;;2.03;;
69419;SDS011;71621;52.030;113.516;2024-01-11T03:27:58;5.95;;;1.33;;
69419;SDS011;71621;52.030;113.516;2024-01-11T03:31:02;5.38;;;1.35;;
69419;SDS011;71621;52.030;113.516;2024-01-11T03:34:06;19.92;;;3.72;;
69419;SDS011;71621;52.030;113.516;2024-01-11T03:37:10;5.22;;;1.40;;
69419;SDS011;71621;52.030;113.516;2024-01-11T03:40:14;5.80;;;1.02;;
69419;SDS011;71621;52.030;113.516;2024-01-11T03:43:18;4.75;;;1.23;;
69419;SDS011;71621;52.030;113.516;2024-01-11T03:46:22;5.53;;;1.93;;
69419;SDS011;71621;52.030;113.516;2024-01-11T03:49:25;6.57;;;0.85;;
69419;SDS011;71621;52.030;113.516;2024-01-11T03:52:29;7.10;;;1.30;;
69419;SDS011;71621;52.030;113.516;2024-01-11T03:55:33;2.93;;;1.00;;
69419;SDS011;71621;52.030;113.516;2024-01-11T03:58:37;5.38;;;1.05;;
69419;SDS011;71621;52.030;113.516;2024-01-11T04:01:43;5.20;;;1.02;;
69419;SDS011;71621;52.030;113.516;2024-01-11T04:04:47;5.78;;;1.58;;
69419;SDS011;71621;52.030;113.516;2024-01-11T04:07:50;7.25;;;2.05;;
69419;SDS011;71621;52.030;113.516;2024-01-11T04:10:54;7.10;;;2.08;;
69419;SDS011;71621;52.030;113.516;2024-01-11T04:13:58;6.35;;;1.30;;
69419;SDS011;71621;52.030;113.516;2024-01-11T04:17:01;6.70;;;1.77;;
69419;SDS011;71621;52.030;113.516;2024-01-11T04:20:09;5.88;;;0.93;;
69419;SDS011;71621;52.030;113.516;2024-01-11T04:23:13;8.38;;;3.90;;
69419;SDS011;71621;52.030;113.516;2024-01-11T04:26:17;5.67;;;1.47;;
69419;SDS011;71621;52.030;113.516;2024-01-11T04:29:21;5.78;;;1.15;;
69419;SDS011;71621;52.030;113.516;2024-01-11T04:32:24;8.35;;;1.55;;
69419;SDS011;71621;52.030;113.516;2024-01-11T04:35:28;4.38;;;1.10;;
69419;SDS011;71621;52.030;113.516;2024-01-11T04:38:32;9.68;;;2.47;;
69419;SDS011;71621;52.030;113.516;2024-01-11T04:41:36;5.22;;;1.33;;
69419;SDS011;71621;52.030;113.516;2024-01-11T04:44:40;4.88;;;1.08;;
69419;SDS011;71621;52.030;113.516;2024-01-11T04:47:43;9.33;;;1.93;;
69419;SDS011;71621;52.030;113.516;2024-01-11T04:50:47;9.48;;;3.08;;
69419;SDS011;71621;52.030;113.516;2024-01-11T04:53:52;11.93;;;4.60;;
69419;SDS011;71621;52.030;113.516;2024-01-11T04:56:55;8.35;;;2.40;;
69419;SDS011;71621;52.030;113.516;2024-01-11T04:59:59;6.70;;;1.95;;
69419;SDS011;71621;52.030;113.516;2024-01-11T05:03:05;8.60;;;2.47;;
69419;SDS011;71621;52.030;113.516;2024-01-11T05:06:15;9.95;;;2.90;;
69419;SDS011;71621;52.030;113.516;2024-01-11T05:09:22;11.67;;;3.10;;
69419;SDS011;71621;52.030;113.516;2024-01-11T05:12:25;6.68;;;1.98;;
69419;SDS011;71621;52.030;113.516;2024-01-11T05:15:29;9.20;;;2.55;;
69419;SDS011;71621;52.030;113.516;2024-01-11T05:18:33;6.17;;;1.77;;
69419;SDS011;71621;52.030;113.516;2024-01-11T05:21:37;5.18;;;1.55;;
69419;SDS011;71621;52.030;113.516;2024-01-11T05:24:40;9.02;;;3.13;;
69419;SDS011;71621;52.030;113.516;2024-01-11T05:27:44;9.20;;;2.58;;
69419;SDS011;71621;52.030;113.516;2024-01-11T05:30:48;10.63;;;3.65;;
69419;SDS011;71621;52.030;113.516;2024-01-11T05:33:52;5.28;;;1.95;;
69419;SDS011;71621;52.030;113.516;2024-01-11T05:36:56;12.05;;;3.25;;
69419;SDS011;71621;52.030;113.516;2024-01-11T05:40:02;13.80;;;4.67;;
69419;SDS011;71621;52.030;113.516;2024-01-11T05:43:06;101.53;;;22.00;;
69419;SDS011;71621;52.030;113.516;2024-01-11T05:46:09;16.10;;;4.80;;
69419;SDS011;71621;52.030;113.516;2024-01-11T05:49:13;11.37;;;3.83;;
69419;SDS011;71621;52.030;113.516;2024-01-11T05:52:17;17.13;;;4.90;;
69419;SDS011;71621;52.030;113.516;2024-01-11T05:55:22;11.63;;;3.58;;
69419;SDS011;71621;52.030;113.516;2024-01-11T05:58:26;21.85;;;7.63;;
69419;SDS011;71621;52.030;113.516;2024-01-11T06:01:30;30.58;;;10.60;;
69419;SDS011;71621;52.030;113.516;2024-01-11T06:04:34;12.98;;;4.05;;
69419;SDS011;71621;52.030;113.516;2024-01-11T06:07:38;20.27;;;13.05;;
69419;SDS011;71621;52.030;113.516;2024-01-11T06:10:42;10.73;;;3.30;;
69419;SDS011;71621;52.030;113.516;2024-01-11T06:13:47;11.40;;;3.83;;
69419;SDS011;71621;52.030;113.516;2024-01-11T06:16:50;6.47;;;1.65;;
69419;SDS011;71621;52.030;113.516;2024-01-11T06:19:54;11.07;;;3.50;;
69419;SDS011;71621;52.030;113.516;2024-01-11T06:22:58;8.07;;;2.22;;
69419;SDS011;71621;52.030;113.516;2024-01-11T06:26:02;6.47;;;2.10;;
69419;SDS011;71621;52.030;113.516;2024-01-11T06:29:06;7.35;;;2.08;;
69419;SDS011;71621;52.030;113.516;2024-01-11T06:32:10;16.10;;;4.63;;
69419;SDS011;71621;52.030;113.516;2024-01-11T06:35:14;34.15;;;11.07;;
69419;SDS011;71621;52.030;113.516;2024-01-11T06:38:18;60.83;;;20.45;;
69419;SDS011;71621;52.030;113.516;2024-01-11T06:41:21;19.53;;;6.10;;
69419;SDS011;71621;52.030;113.516;2024-01-11T06:44:25;18.92;;;6.18;;
69419;SDS011;71621;52.030;113.516;2024-01-11T06:47:29;11.63;;;3.58;;
69419;SDS011;71621;52.030;113.516;2024-01-11T06:50:33;10.27;;;3.60;;
69419;SDS011;71621;52.030;113.516;2024-01-11T06:53:37;16.15;;;4.60;;
69419;SDS011;71621;52.030;113.516;2024-01-11T06:56:41;16.92;;;4.68;;
69419;SDS011;71621;52.030;113.516;2024-01-11T06:59:45;12.70;;;4.63;;
69419;SDS011;71621;52.030;113.516;2024-01-11T07:02:49;15.48;;;4.68;;
69419;SDS011;71621;52.030;113.516;2024-01-11T07:05:53;19.13;;;6.88;;
69419;SDS011;71621;52.030;113.516;2024-01-11T07:08:57;11.05;;;2.92;;
69419;SDS011;71621;52.030;113.516;2024-01-11T07:12:01;9.13;;;3.37;;
69419;SDS011;71621;52.030;113.516;2024-01-11T07:15:05;8.45;;;2.60;;
69419;SDS011;71621;52.030;113.516;2024-01-11T07:18:10;10.85;;;3.47;;
69419;SDS011;71621;52.030;113.516;2024-01-11T07:21:24;16.13;;;4.93;;
69419;SDS011;71621;52.030;113.516;2024-01-11T07:24:34;67.63;;;24.90;;
69419;SDS011;71621;52.030;113.516;2024-01-11T07:27:40;39.90;;;15.05;;
69419;SDS011;71621;52.030;113.516;2024-01-11T07:30:44;28.80;;;9.70;;
69419;SDS011;71621;52.030;113.516;2024-01-11T07:33:52;17.48;;;5.95;;
69419;SDS011;71621;52.030;113.516;2024-01-11T07:36:55;16.27;;;6.28;;
69419;SDS011;71621;52.030;113.516;2024-01-11T07:39:59;29.17;;;7.80;;
69419;SDS011;71621;52.030;113.516;2024-01-11T07:43:03;18.87;;;5.53;;
69419;SDS011;71621;52.030;113.516;2024-01-11T07:46:07;13.07;;;3.70;;
69419;SDS011;71621;52.030;113.516;2024-01-11T07:49:10;32.60;;;8.60;;
69419;SDS011;71621;52.030;113.516;2024-01-11T07:52:17;24.07;;;8.27;;
69419;SDS011;71621;52.030;113.516;2024-01-11T07:55:22;18.15;;;4.80;;
69419;SDS011;71621;52.030;113.516;2024-01-11T07:58:27;43.25;;;13.45;;
69419;SDS011;71621;52.030;113.516;2024-01-11T08:01:30;19.48;;;7.05;;
69419;SDS011;71621;52.030;113.516;2024-01-11T08:04:34;22.38;;;7.07;;
69419;SDS011;71621;52.030;113.516;2024-01-11T08:07:38;13.50;;;4.32;;
69419;SDS011;71621;52.030;113.516;2024-01-11T08:10:42;22.98;;;6.63;;
69419;SDS011;71621;52.030;113.516;2024-01-11T08:13:46;21.27;;;6.47;;
69419;SDS011;71621;52.030;113.516;2024-01-11T08:16:51;18.75;;;5.28;;
69419;SDS011;71621;52.030;113.516;2024-01-11T08:19:56;20.90;;;5.03;;
69419;SDS011;71621;52.030;113.516;2024-01-11T08:23:00;107.73;;;30.57;;
69419;SDS011;71621;52.030;113.516;2024-01-11T08:26:04;21.25;;;7.03;;
69419;SDS011;71621;52.030;113.516;2024-01-11T08:29:08;25.48;;;6.82;;
69419;SDS011;71621;52.030;113.516;2024-01-11T08:32:12;11.88;;;3.90;;
69419;SDS011;71621;52.030;113.516;2024-01-11T08:35:32;10.55;;;3.80;;
69419;SDS011;71621;52.030;113.516;2024-01-11T08:38:35;11.05;;;3.38;;
69419;SDS011;71621;52.030;113.516;2024-01-11T08:41:39;8.48;;;2.80;;
69419;SDS011;71621;52.030;113.516;2024-01-11T08:44:43;11.20;;;2.63;;
69419;SDS011;71621;52.030;113.516;2024-01-11T08:47:47;16.45;;;5.00;;
69419;SDS011;71621;52.030;113.516;2024-01-11T08:50:51;7.60;;;2.55;;
69419;SDS011;71621;52.030;113.516;2024-01-11T08:53:55;6.70;;;2.23;;
69419;SDS011;71621;52.030;113.516;2024-01-11T08:56:59;7.53;;;2.10;;
69419;SDS011;71621;52.030;113.516;2024-01-11T09:00:04;6.63;;;2.80;;
69419;SDS011;71621;52.030;113.516;2024-01-11T09:03:11;13.05;;;3.45;;
69419;SDS011;71621;52.030;113.516;2024-01-11T09:06:16;11.18;;;3.25;;
69419;SDS011;71621;52.030;113.516;2024-01-11T09:09:20;23.17;;;8.40;;
69419;SDS011;71621;52.030;113.516;2024-01-11T09:12:24;23.85;;;7.60;;
69419;SDS011;71621;52.030;113.516;2024-01-11T09:15:27;11.07;;;3.50;;
69419;SDS011;71621;52.030;113.516;2024-01-11T09:18:31;7.00;;;2.58;;
69419;SDS011;71621;52.030;113.516;2024-01-11T09:21:37;10.57;;;2.95;;
69419;SDS011;71621;52.030;113.516;2024-01-11T09:24:40;32.37;;;11.40;;
69419;SDS011;71621;52.030;113.516;2024-01-11T09:27:44;10.40;;;3.67;;
69419;SDS011;71621;52.030;113.516;2024-01-11T09:30:48;214.18;;;55.38;;
69419;SDS011;71621;52.030;113.516;2024-01-11T09:33:52;178.40;;;49.05;;
69419;SDS011;71621;52.030;113.516;2024-01-11T09:36:56;193.95;;;52.13;;
69419;SDS011;71621;52.030;113.516;2024-01-11T09:40:02;145.95;;;45.35;;
69419;SDS011;71621;52.030;113.516;2024-01-11T09:43:06;52.15;;;17.30;;
69419;SDS011;71621;52.030;113.516;2024-01-11T09:46:13;78.27;;;24.57;;
69419;SDS011;71621;52.030;113.516;2024-01-11T09:49:18;58.72;;;18.98;;
69419;SDS011;71621;52.030;113.516;2024-01-11T09:52:25;18.50;;;5.95;;
69419;SDS011;71621;52.030;113.516;2024-01-11T09:55:29;6.57;;;1.80;;
69419;SDS011;71621;52.030;113.516;2024-01-11T09:58:34;12.20;;;3.67;;
69419;SDS011;71621;52.030;113.516;2024-01-11T10:01:41;52.47;;;18.00;;
69419;SDS011;71621;52.030;113.516;2024-01-11T10:04:46;17.80;;;7.80;;
69419;SDS011;71621;52.030;113.516;2024-01-11T10:07:50;39.90;;;13.60;;
69419;SDS011;71621;52.030;113.516;2024-01-11T10:10:53;75.55;;;25.20;;
69419;SDS011;71621;52.030;113.516;2024-01-11T10:13:57;158.75;;;50.42;;
69419;SDS011;71621;52.030;113.516;2024-01-11T10:17:03;183.93;;;59.60;;
69419;SDS011;71621;52.030;113.516;2024-01-11T10:20:08;218.13;;;68.38;;
69419;SDS011;71621;52.030;113.516;2024-01-11T10:23:13;212.48;;;66.40;;
69419;SDS011;71621;52.030;113.516;2024-01-11T10:26:17;191.67;;;58.67;;
69419;SDS011;71621;52.030;113.516;2024-01-11T10:29:22;183.32;;;59.90;;
69419;SDS011;71621;52.030;113.516;2024-01-11T10:32:28;171.93;;;55.20;;
69419;SDS011;71621;52.030;113.516;2024-01-11T10:35:32;156.00;;;46.95;;
69419;SDS011;71621;52.030;113.516;2024-01-11T10:38:39;145.38;;;44.70;;
69419;SDS011;71621;52.030;113.516;2024-01-11T10:41:51;171.00;;;54.03;;
69419;SDS011;71621;52.030;113.516;2024-01-11T10:45:02;173.57;;;55.58;;
69419;SDS011;71621;52.030;113.516;2024-01-11T10:48:17;180.97;;;61.87;;
69419;SDS011;71621;52.030;113.516;2024-01-11T10:51:23;225.65;;;72.55;;
69419;SDS011;71621;52.030;113.516;2024-01-11T10:54:28;221.18;;;70.50;;
69419;SDS011;71621;52.030;113.516;2024-01-11T10:57:33;190.33;;;62.33;;
69419;SDS011;71621;52.030;113.516;2024-01-11T11:00:38;208.68;;;64.13;;
69419;SDS011;71621;52.030;113.516;2024-01-11T11:03:42;215.73;;;68.18;;
69419;SDS011;71621;52.030;113.516;2024-01-11T11:06:54;208.40;;;67.35;;
69419;SDS011;71621;52.030;113.516;2024-01-11T11:10:01;219.88;;;68.28;;
69419;SDS011;71621;52.030;113.516;2024-01-11T11:13:08;206.75;;;65.35;;
69419;SDS011;71621;52.030;113.516;2024-01-11T11:16:14;207.50;;;65.13;;
69419;SDS011;71621;52.030;113.516;2024-01-11T11:19:20;201.40;;;61.20;;
69419;SDS011;71621;52.030;113.516;2024-01-11T11:22:26;197.40;;;57.70;;
69419;SDS011;71621;52.030;113.516;2024-01-11T11:25:30;179.63;;;56.42;;
69419;SDS011;71621;52.030;113.516;2024-01-11T11:28:34;169.07;;;55.37;;
69419;SDS011;71621;52.030;113.516;2024-01-11T11:31:43;174.35;;;55.50;;
69419;SDS011;71621;52.030;113.516;2024-01-11T11:34:56;188.43;;;59.95;;
69419;SDS011;71621;52.030;113.516;2024-01-11T11:38:00;196.52;;;64.88;;
69419;SDS011;71621;52.030;113.516;2024-01-11T11:41:03;203.88;;;67.05;;
69419;SDS011;71621;52.030;113.516;2024-01-11T11:44:07;207.32;;;69.35;;
69419;SDS011;71621;52.030;113.516;2024-01-11T11:47:19;194.77;;;63.85;;
69419;SDS011;71621;52.030;113.516;2024-01-11T11:50:24;209.00;;;63.83;;
69419;SDS011;71621;52.030;113.516;2024-01-11T11:53:30;189.32;;;65.15;;
69419;SDS011;71621;52.030;113.516;2024-01-11T11:56:37;199.90;;;60.03;;
69419;SDS011;71621;52.030;113.516;2024-01-11T11:59:41;157.43;;;55.40;;
69419;SDS011;71621;52.030;113.516;2024-01-11T12:02:48;174.13;;;57.03;;
69419;SDS011;71621;52.030;113.516;2024-01-11T12:05:56;190.65;;;62.60;;
69419;SDS011;71621;52.030;113.516;2024-01-11T12:09:01;185.15;;;58.55;;
69419;SDS011;71621;52.030;113.516;2024-01-11T12:12:05;202.70;;;57.17;;
69419;SDS011;71621;52.030;113.516;2024-01-11T12:15:18;147.43;;;51.95;;
69419;SDS011;71621;52.030;113.516;2024-01-11T12:18:21;156.20;;;51.42;;
69419;SDS011;71621;52.030;113.516;2024-01-11T12:21:25;153.53;;;49.63;;
69419;SDS011;71621;52.030;113.516;2024-01-11T12:24:29;158.25;;;51.30;;
69419;SDS011;71621;52.030;113.516;2024-01-11T12:27:33;145.93;;;50.47;;
69419;SDS011;71621;52.030;113.516;2024-01-11T12:30:37;157.43;;;55.00;;
69419;SDS011;71621;52.030;113.516;2024-01-11T12:33:41;179.18;;;56.13;;
69419;SDS011;71621;52.030;113.516;2024-01-11T12:36:46;153.65;;;52.13;;
69419;SDS011;71621;52.030;113.516;2024-01-11T12:39:56;172.98;;;57.25;;
69419;SDS011;71621;52.030;113.516;2024-01-11T12:43:00;161.10;;;52.10;;
69419;SDS011;71621;52.030;113.516;2024-01-11T12:46:04;156.75;;;48.88;;
69419;SDS011;71621;52.030;113.516;2024-01-11T12:49:09;137.63;;;49.85;;
69419;SDS011;71621;52.030;113.516;2024-01-11T12:52:17;169.57;;;51.03;;
69419;SDS011;71621;52.030;113.516;2024-01-11T12:55:22;161.80;;;52.97;;
69419;SDS011;71621;52.030;113.516;2024-01-11T12:58:27;186.65;;;58.55;;
69419;SDS011;71621;52.030;113.516;2024-01-11T13:01:31;228.60;;;66.73;;
69419;SDS011;71621;52.030;113.516;2024-01-11T13:04:34;222.75;;;70.63;;
69419;SDS011;71621;52.030;113.516;2024-01-11T13:07:38;213.60;;;66.95;;
69419;SDS011;71621;52.030;113.516;2024-01-11T13:10:42;207.27;;;62.22;;
69419;SDS011;71621;52.030;113.516;2024-01-11T13:13:46;187.13;;;57.65;;
69419;SDS011;71621;52.030;113.516;2024-01-11T13:16:50;188.02;;;59.78;;
69419;SDS011;71621;52.030;113.516;2024-01-11T13:19:54;197.77;;;61.45;;
69419;SDS011;71621;52.030;113.516;2024-01-11T13:23:17;192.57;;;64.47;;
69419;SDS011;71621;52.030;113.516;2024-01-11T13:26:24;174.77;;;57.15;;
69419;SDS011;71621;52.030;113.516;2024-01-11T13:29:28;153.18;;;49.10;;
69419;SDS011;71621;52.030;113.516;2024-01-11T13:32:31;183.60;;;56.53;;
69419;SDS011;71621;52.030;113.516;2024-01-11T13:35:36;164.13;;;48.22;;
69419;SDS011;71621;52.030;113.516;2024-01-11T13:38:40;146.48;;;45.42;;
69419;SDS011;71621;52.030;113.516;2024-01-11T13:41:44;132.70;;;42.90;;
69419;SDS011;71621;52.030;113.516;2024-01-11T13:44:48;133.52;;;44.30;;
69419;SDS011;71621;52.030;113.516;2024-01-11T13:47:52;145.85;;;46.63;;
69419;SDS011;71621;52.030;113.516;2024-01-11T13:50:59;149.20;;;50.67;;
69419;SDS011;71621;52.030;113.516;2024-01-11T13:54:03;149.17;;;46.53;;
69419;SDS011;71621;52.030;113.516;2024-01-11T13:57:07;141.30;;;45.60;;
69419;SDS011;71621;52.030;113.516;2024-01-11T14:00:11;123.93;;;39.50;;
69419;SDS011;71621;52.030;113.516;2024-01-11T14:03:15;139.27;;;43.13;;
69419;SDS011;71621;52.030;113.516;2024-01-11T14:06:19;107.60;;;38.65;;
69419;SDS011;71621;52.030;113.516;2024-01-11T14:09:24;112.65;;;35.13;;
69419;SDS011;71621;52.030;113.516;2024-01-11T14:12:28;108.65;;;31.70;;
69419;SDS011;71621;52.030;113.516;2024-01-11T14:15:32;96.63;;;29.13;;
69419;SDS011;71621;52.030;113.516;2024-01-11T14:18:36;96.00;;;33.35;;
69419;SDS011;71621;52.030;113.516;2024-01-11T14:21:40;114.05;;;33.67;;
69419;SDS011;71621;52.030;113.516;2024-01-11T14:24:44;104.53;;;34.63;;
69419;SDS011;71621;52.030;113.516;2024-01-11T14:27:48;113.65;;;33.53;;
69419;SDS011;71621;52.030;113.516;2024-01-11T14:30:52;100.65;;;35.90;;
69419;SDS011;71621;52.030;113.516;2024-01-11T14:33:55;126.93;;;40.47;;
69419;SDS011;71621;52.030;113.516;2024-01-11T14:36:59;128.60;;;43.22;;
69419;SDS011;71621;52.030;113.516;2024-01-11T14:40:04;164.98;;;47.60;;
69419;SDS011;71621;52.030;113.516;2024-01-11T14:43:08;190.10;;;57.42;;
69419;SDS011;71621;52.030;113.516;2024-01-11T14:46:12;172.98;;;57.35;;
69419;SDS011;71621;52.030;113.516;2024-01-11T14:49:16;165.85;;;52.00;;
69419;SDS011;71621;52.030;113.516;2024-01-11T14:52:20;184.10;;;56.08;;
69419;SDS011;71621;52.030;113.516;2024-01-11T14:55:23;169.60;;;51.10;;
69419;SDS011;71621;52.030;113.516;2024-01-11T14:58:27;146.98;;;50.72;;
69419;SDS011;71621;52.030;113.516;2024-01-11T15:01:30;205.57;;;70.43;;
69419;SDS011;71621;52.030;113.516;2024-01-11T15:04:36;177.03;;;58.77;;
69419;SDS011;71621;52.030;113.516;2024-01-11T15:07:39;168.07;;;55.88;;
69419;SDS011;71621;52.030;113.516;2024-01-11T15:10:43;204.93;;;58.73;;
69419;SDS011;71621;52.030;113.516;2024-01-11T15:13:47;166.88;;;50.05;;
69419;SDS011;71621;52.030;113.516;2024-01-11T15:16:51;229.55;;;70.80;;
69419;SDS011;71621;52.030;113.516;2024-01-11T15:19:54;181.70;;;57.85;;
69419;SDS011;71621;52.030;113.516;2024-01-11T15:22:59;185.27;;;56.72;;
69419;SDS011;71621;52.030;113.516;2024-01-11T15:26:03;172.03;;;53.07;;
69419;SDS011;71621;52.030;113.516;2024-01-11T15:29:08;161.40;;;54.83;;
69419;SDS011;71621;52.030;113.516;2024-01-11T15:32:11;195.70;;;59.67;;
69419;SDS011;71621;52.030;113.516;2024-01-11T15:35:15;173.10;;;57.27;;
69419;SDS011;71621;52.030;113.516;2024-01-11T15:38:19;181.75;;;58.53;;
69419;SDS011;71621;52.030;113.516;2024-01-11T15:41:23;162.52;;;53.85;;
69419;SDS011;71621;52.030;113.516;2024-01-11T15:44:26;210.18;;;60.35;;
69419;SDS011;71621;52.030;113.516;2024-01-11T15:47:31;123.30;;;41.78;;
69419;SDS011;71621;52.030;113.516;2024-01-11T15:50:35;149.32;;;48.75;;
69419;SDS011;71621;52.030;113.516;2024-01-11T15:53:40;131.60;;;47.42;;
69419;SDS011;71621;52.030;113.516;2024-01-11T15:56:44;152.13;;;52.50;;
69419;SDS011;71621;52.030;113.516;2024-01-11T15:59:48;160.20;;;50.38;;
69419;SDS011;71621;52.030;113.516;2024-01-11T16:02:51;122.97;;;43.75;;
69419;SDS011;71621;52.030;113.516;2024-01-11T16:05:57;181.23;;;50.57;;
69419;SDS011;71621;52.030;113.516;2024-01-11T16:09:01;173.15;;;54.22;;
69419;SDS011;71621;52.030;113.516;2024-01-11T16:12:08;160.05;;;50.92;;
69419;SDS011;71621;52.030;113.516;2024-01-11T16:15:12;186.50;;;55.90;;
69419;SDS011;71621;52.030;113.516;2024-01-11T16:18:18;162.35;;;50.58;;
69419;SDS011;71621;52.030;113.516;2024-01-11T16:21:22;168.13;;;50.55;;
69419;SDS011;71621;52.030;113.516;2024-01-11T16:24:26;161.30;;;49.50;;
69419;SDS011;71621;52.030;113.516;2024-01-11T16:27:30;139.23;;;40.60;;
69419;SDS011;71621;52.030;113.516;2024-01-11T16:30:34;110.20;;;42.80;;
69419;SDS011;71621;52.030;113.516;2024-01-11T16:33:37;122.53;;;46.35;;
69419;SDS011;71621;52.030;113.516;2024-01-11T16:36:41;91.00;;;31.87;;
69419;SDS011;71621;52.030;113.516;2024-01-11T16:39:45;140.65;;;41.50;;
69419;SDS011;71621;52.030;113.516;2024-01-11T16:42:51;158.00;;;53.58;;
69419;SDS011;71621;52.030;113.516;2024-01-11T16:45:54;135.52;;;45.63;;
69419;SDS011;71621;52.030;113.516;2024-01-11T16:48:59;120.40;;;40.85;;
69419;SDS011;71621;52.030;113.516;2024-01-11T16:52:04;129.15;;;48.67;;
69419;SDS011;71621;52.030;113.516;2024-01-11T16:55:09;136.18;;;46.75;;
69419;SDS011;71621;52.030;113.516;2024-01-11T16:58:12;136.67;;;47.27;;
69419;SDS011;71621;52.030;113.516;2024-01-11T17:01:17;160.73;;;50.55;;
69419;SDS011;71621;52.030;113.516;2024-01-11T17:04:20;147.90;;;49.60;;
69419;SDS011;71621;52.030;113.516;2024-01-11T17:07:24;187.43;;;56.27;;
69419;SDS011;71621;52.030;113.516;2024-01-11T17:10:28;152.77;;;46.25;;
69419;SDS011;71621;52.030;113.516;2024-01-11T17:13:32;158.55;;;48.63;;
69419;SDS011;71621;52.030;113.516;2024-01-11T17:16:35;172.57;;;53.05;;
69419;SDS011;71621;52.030;113.516;2024-01-11T17:19:39;169.63;;;54.42;;
69419;SDS011;71621;52.030;113.516;2024-01-11T17:22:42;170.50;;;52.60;;
69419;SDS011;71621;52.030;113.516;2024-01-11T17:25:46;178.25;;;57.10;;
69419;SDS011;71621;52.030;113.516;2024-01-11T17:28:50;217.50;;;64.17;;
69419;SDS011;71621;52.030;113.516;2024-01-11T17:31:54;258.27;;;69.60;;